Round Rock, TX (78665)

3:19 AM CST on February 06, 2016 (GMT -0600)
Voigt Elementary School | | Change Station
CLOSE
Current Station
Personal Weather Station
Location: Round Rock, TX
Elevation: 768 ft
Nearby Weather Stations

Elev 768 ft 30.50 °N, 97.68 °W | Updated 7 minutes ago

Partly Cloudy
Partly Cloudy
45.9 °F
Feels Like 46 °F
N
1.1
Wind Variable Wind from West

Today
High -- | Low -- °F
--% Chance of Precip.
Yesterday
High -- | Low -- °F
Precip. -- in
Pressure 30.31 in
Visibility 10.0 miles
Clouds Few 2900 ft
Scattered Clouds 3700 ft
Mostly Cloudy 4400 ft
Windchill 46 °F
Dew Point 42 °F
Humidity 88%
Rainfall 0.31 in
Snow Depth Not available.
7:18 AM 6:11 PM
Waning Crescent, 6% visible
METAR KEDC 060915Z AUTO 26007KT 10SM FEW029 SCT037 BKN044 07/05 A3031 RMK AO2
Pressure 30.31 in
Visibility 10.0 miles
Clouds Few 2900 ft
Scattered Clouds 3700 ft
Mostly Cloudy 4400 ft
Windchill 46 °F
Dew Point 42 °F
Humidity 88%
Rainfall 0.31 in
Snow Depth Not available.
7:18 AM 6:11 PM
Waning Crescent, 6% visible
METAR KEDC 060915Z AUTO 26007KT 10SM FEW029 SCT037 BKN044 07/05 A3031 RMK AO2

10-Day Weather Forecast

Almanac

Astronomy

Feb. 06, 2016 Rise Set
Actual Time
Civil Twilight
Nautical Twilight
Astronomical Twilight
Moon
Length of Visible Light
Length of Day
Tomorrow will be .
, % of the Moon is Illuminated

Today's Extremes

State Highs State Lows

Community

WunderPhotos

Upload Photos

1,890,933 photos uploaded!

WunderBlog® & News

Nearby

Air Quality

  Air Quality AQ Index Pollutant
Not available.

Snow Depth

Station Depth Elevation

Earthquake Activity

City Distance Mag. Time & Date
Minimum magnitude displayed is 2.5.

Coastal Water Temperatures

Place Temperature

Stations

Nearby Weather Stations

Station Location Temp. Windchill Dew Point Humidity Wind Precip. Elev Updated Type
                   

Watches & Warnings

There are currently no watches in effect.